Terminal Aerodrome Forecast
Issued by NWS

Home | Current Version | Previous Version | Text Only | Print | Product List | Glossary On
Versions: 1 2 3 4 5 6 7 8 9 10 11 12 13 14 15 16 17 18
985
FTUS41 KBGM 121129
TAFELM
TAF
KELM 121129Z 1212/1312 24005KT P6SM BKN250
     FM121500 21010KT P6SM SCT040
     FM121800 23009G17KT P6SM BKN035 OVC090
     FM130300 27009KT P6SM BKN050
      TEMPO 1303/1306 3SM -SHSN OVC025
     FM130600 31015G26KT 5SM -SHSN BLSN BKN025 PROB30 1306/1312
      3/4SM -SHSN BLSN OVC012=

USA.gov is the U.S. government's official web portal to all federal, state and local government web resources and services.